sensor_id;sensor_type;location;lat;lon;timestamp;pressure;altitude;pressure_sealevel;temperature;humidity
71964;BME280;59834;52.124;5.422;2023-10-08T00:01:43;102272.63;;;17.13;100.00
71964;BME280;59834;52.124;5.422;2023-10-08T00:04:10;102269.13;;;17.12;100.00
71964;BME280;59834;52.124;5.422;2023-10-08T00:06:37;102273.59;;;17.12;100.00
71964;BME280;59834;52.124;5.422;2023-10-08T00:09:04;102285.13;;;17.11;100.00
71964;BME280;59834;52.124;5.422;2023-10-08T00:11:35;102304.56;;;17.10;100.00
71964;BME280;59834;52.124;5.422;2023-10-08T00:14:06;102309.13;;;17.08;100.00
71964;BME280;59834;52.124;5.422;2023-10-08T00:16:37;102313.59;;;17.07;100.00
71964;BME280;59834;52.124;5.422;2023-10-08T00:19:07;102326.91;;;17.06;100.00
71964;BME280;59834;52.124;5.422;2023-10-08T00:21:41;102303.84;;;17.08;100.00
71964;BME280;59834;52.124;5.422;2023-10-08T00:24:11;102299.59;;;17.05;100.00
71964;BME280;59834;52.124;5.422;2023-10-08T00:26:40;102309.34;;;17.05;100.00
71964;BME280;59834;52.124;5.422;2023-10-08T00:29:08;102304.06;;;17.05;100.00
71964;BME280;59834;52.124;5.422;2023-10-08T00:31:48;102303.28;;;17.03;100.00
71964;BME280;59834;52.124;5.422;2023-10-08T00:34:19;102297.28;;;17.01;100.00
71964;BME280;59834;52.124;5.422;2023-10-08T00:36:47;102298.97;;;17.02;100.00
71964;BME280;59834;52.124;5.422;2023-10-08T00:39:18;102291.03;;;17.02;100.00
71964;BME280;59834;52.124;5.422;2023-10-08T00:41:52;102281.28;;;17.02;100.00
71964;BME280;59834;52.124;5.422;2023-10-08T00:44:25;102296.31;;;17.02;100.00
71964;BME280;59834;52.124;5.422;2023-10-08T00:47:03;102284.06;;;17.01;100.00
71964;BME280;59834;52.124;5.422;2023-10-08T00:49:32;102278.00;;;16.99;100.00
71964;BME280;59834;52.124;5.422;2023-10-08T00:52:14;102274.72;;;16.95;100.00
71964;BME280;59834;52.124;5.422;2023-10-08T00:54:42;102280.13;;;16.93;100.00
71964;BME280;59834;52.124;5.422;2023-10-08T00:57:36;102268.81;;;16.91;100.00
71964;BME280;59834;52.124;5.422;2023-10-08T01:00:04;102259.38;;;16.87;100.00
71964;BME280;59834;52.124;5.422;2023-10-08T01:02:58;102266.47;;;16.87;100.00
71964;BME280;59834;52.124;5.422;2023-10-08T01:05:28;102268.44;;;16.83;100.00
71964;BME280;59834;52.124;5.422;2023-10-08T01:08:10;102254.50;;;16.81;100.00
71964;BME280;59834;52.124;5.422;2023-10-08T01:10:40;102266.13;;;16.79;100.00
71964;BME280;59834;52.124;5.422;2023-10-08T01:13:10;102268.97;;;16.76;100.00
71964;BME280;59834;52.124;5.422;2023-10-08T01:15:43;102262.06;;;16.73;100.00
71964;BME280;59834;52.124;5.422;2023-10-08T01:18:11;102259.66;;;16.70;100.00
71964;BME280;59834;52.124;5.422;2023-10-08T01:20:42;102256.34;;;16.66;100.00
71964;BME280;59834;52.124;5.422;2023-10-08T01:23:19;102250.31;;;16.64;100.00
71964;BME280;59834;52.124;5.422;2023-10-08T01:25:55;102259.28;;;16.62;100.00
71964;BME280;59834;52.124;5.422;2023-10-08T01:28:37;102261.19;;;16.60;100.00
71964;BME280;59834;52.124;5.422;2023-10-08T01:31:04;102264.78;;;16.59;100.00
71964;BME280;59834;52.124;5.422;2023-10-08T01:33:31;102262.25;;;16.57;100.00
71964;BME280;59834;52.124;5.422;2023-10-08T01:36:04;102271.97;;;16.57;100.00
71964;BME280;59834;52.124;5.422;2023-10-08T01:38:32;102285.19;;;16.57;100.00
71964;BME280;59834;52.124;5.422;2023-10-08T01:41:02;102290.47;;;16.57;100.00
71964;BME280;59834;52.124;5.422;2023-10-08T01:43:48;102295.00;;;16.55;100.00
71964;BME280;59834;52.124;5.422;2023-10-08T01:46:16;102284.75;;;16.50;100.00
71964;BME280;59834;52.124;5.422;2023-10-08T01:48:43;102287.41;;;16.50;100.00
71964;BME280;59834;52.124;5.422;2023-10-08T01:51:11;102302.38;;;16.49;100.00
71964;BME280;59834;52.124;5.422;2023-10-08T01:53:45;102290.88;;;16.50;100.00
71964;BME280;59834;52.124;5.422;2023-10-08T01:56:13;102307.66;;;16.49;100.00
71964;BME280;59834;52.124;5.422;2023-10-08T01:58:40;102327.03;;;16.50;100.00
71964;BME280;59834;52.124;5.422;2023-10-08T02:01:07;102320.16;;;16.47;100.00
71964;BME280;59834;52.124;5.422;2023-10-08T02:03:38;102333.44;;;16.46;100.00
71964;BME280;59834;52.124;5.422;2023-10-08T02:06:05;102344.03;;;16.46;100.00
71964;BME280;59834;52.124;5.422;2023-10-08T02:08:35;102338.84;;;16.44;100.00
71964;BME280;59834;52.124;5.422;2023-10-08T02:11:03;102338.84;;;16.44;100.00
71964;BME280;59834;52.124;5.422;2023-10-08T02:13:29;102345.09;;;16.43;100.00
71964;BME280;59834;52.124;5.422;2023-10-08T02:15:57;102329.22;;;16.43;100.00
71964;BME280;59834;52.124;5.422;2023-10-08T02:18:24;102338.94;;;16.43;100.00
71964;BME280;59834;52.124;5.422;2023-10-08T02:20:52;102334.50;;;16.43;100.00
71964;BME280;59834;52.124;5.422;2023-10-08T02:23:19;102333.63;;;16.43;100.00
71964;BME280;59834;52.124;5.422;2023-10-08T02:25:46;102343.38;;;16.42;100.00
71964;BME280;59834;52.124;5.422;2023-10-08T02:28:14;102323.94;;;16.43;100.00
71964;BME280;59834;52.124;5.422;2023-10-08T02:30:46;102309.13;;;16.41;100.00
71964;BME280;59834;52.124;5.422;2023-10-08T02:33:13;102330.28;;;16.41;100.00
71964;BME280;59834;52.124;5.422;2023-10-08T02:35:45;102340.91;;;16.39;100.00
71964;BME280;59834;52.124;5.422;2023-10-08T02:38:14;102350.38;;;16.43;100.00
71964;BME280;59834;52.124;5.422;2023-10-08T02:40:45;102336.41;;;16.41;100.00
71964;BME280;59834;52.124;5.422;2023-10-08T02:43:15;102330.16;;;16.42;100.00
71964;BME280;59834;52.124;5.422;2023-10-08T02:45:43;102316.09;;;16.42;100.00
71964;BME280;59834;52.124;5.422;2023-10-08T02:48:14;102299.50;;;16.40;100.00
71964;BME280;59834;52.124;5.422;2023-10-08T02:50:43;102301.41;;;16.38;100.00
71964;BME280;59834;52.124;5.422;2023-10-08T02:53:13;102338.47;;;16.36;100.00
71964;BME280;59834;52.124;5.422;2023-10-08T02:55:45;102370.94;;;16.38;100.00
71964;BME280;59834;52.124;5.422;2023-10-08T02:58:13;102334.06;;;16.37;100.00
71964;BME280;59834;52.124;5.422;2023-10-08T03:00:42;102352.66;;;16.35;100.00
71964;BME280;59834;52.124;5.422;2023-10-08T03:03:09;102351.69;;;16.36;100.00
71964;BME280;59834;52.124;5.422;2023-10-08T03:05:45;102325.25;;;16.36;100.00
71964;BME280;59834;52.124;5.422;2023-10-08T03:08:17;102330.53;;;16.36;100.00
71964;BME280;59834;52.124;5.422;2023-10-08T03:10:49;102364.91;;;16.36;100.00
71964;BME280;59834;52.124;5.422;2023-10-08T03:13:23;102336.59;;;16.38;100.00
71964;BME280;59834;52.124;5.422;2023-10-08T03:15:50;102360.38;;;16.38;100.00
71964;BME280;59834;52.124;5.422;2023-10-08T03:18:29;102339.34;;;16.37;100.00
71964;BME280;59834;52.124;5.422;2023-10-08T03:21:04;102333.41;;;16.33;100.00
71964;BME280;59834;52.124;5.422;2023-10-08T03:23:32;102344.91;;;16.32;100.00
71964;BME280;59834;52.124;5.422;2023-10-08T03:26:03;102337.94;;;16.31;100.00
71964;BME280;59834;52.124;5.422;2023-10-08T03:28:38;102327.44;;;16.30;100.00
71964;BME280;59834;52.124;5.422;2023-10-08T03:31:08;102324.16;;;16.26;100.00
71964;BME280;59834;52.124;5.422;2023-10-08T03:33:43;102323.50;;;16.22;100.00
71964;BME280;59834;52.124;5.422;2023-10-08T03:36:16;102339.34;;;16.22;100.00
71964;BME280;59834;52.124;5.422;2023-10-08T03:39:00;102360.41;;;16.24;100.00
71964;BME280;59834;52.124;5.422;2023-10-08T03:41:39;102386.63;;;16.27;100.00
71964;BME280;59834;52.124;5.422;2023-10-08T03:44:09;102381.25;;;16.29;100.00
71964;BME280;59834;52.124;5.422;2023-10-08T03:46:40;102387.28;;;16.31;100.00
71964;BME280;59834;52.124;5.422;2023-10-08T03:49:10;102382.84;;;16.31;100.00
71964;BME280;59834;52.124;5.422;2023-10-08T03:51:49;102372.28;;;16.31;100.00
71964;BME280;59834;52.124;5.422;2023-10-08T03:54:21;102390.66;;;16.33;100.00
71964;BME280;59834;52.124;5.422;2023-10-08T03:57:00;102382.66;;;16.34;100.00
71964;BME280;59834;52.124;5.422;2023-10-08T03:59:27;102395.75;;;16.36;100.00
71964;BME280;59834;52.124;5.422;2023-10-08T04:01:59;102391.31;;;16.36;100.00
71964;BME280;59834;52.124;5.422;2023-10-08T04:04:36;102396.53;;;16.38;100.00
71964;BME280;59834;52.124;5.422;2023-10-08T04:07:21;102406.34;;;16.36;100.00
71964;BME280;59834;52.124;5.422;2023-10-08T04:09:51;102434.75;;;16.18;100.00
71964;BME280;59834;52.124;5.422;2023-10-08T04:12:44;102437.13;;;16.08;100.00
71964;BME280;59834;52.124;5.422;2023-10-08T04:15:12;102441.38;;;15.96;100.00
71964;BME280;59834;52.124;5.422;2023-10-08T04:17:44;102444.75;;;15.84;100.00
71964;BME280;59834;52.124;5.422;2023-10-08T04:20:14;102448.78;;;15.75;100.00
71964;BME280;59834;52.124;5.422;2023-10-08T04:23:02;102460.88;;;15.64;100.00
71964;BME280;59834;52.124;5.422;2023-10-08T04:25:30;102451.03;;;15.51;100.00
71964;BME280;59834;52.124;5.422;2023-10-08T04:27:59;102440.19;;;15.42;100.00
71964;BME280;59834;52.124;5.422;2023-10-08T04:30:33;102439.69;;;15.35;100.00
71964;BME280;59834;52.124;5.422;2023-10-08T04:33:00;102438.09;;;15.32;100.00
71964;BME280;59834;52.124;5.422;2023-10-08T04:35:34;102435.53;;;15.31;100.00
71964;BME280;59834;52.124;5.422;2023-10-08T04:38:06;102433.25;;;15.25;100.00
71964;BME280;59834;52.124;5.422;2023-10-08T04:40:35;102431.56;;;15.24;100.00
71964;BME280;59834;52.124;5.422;2023-10-08T04:43:23;102413.16;;;15.22;100.00
71964;BME280;59834;52.124;5.422;2023-10-08T04:45:58;102403.75;;;15.18;100.00
71964;BME280;59834;52.124;5.422;2023-10-08T04:48:25;102404.78;;;15.16;100.00
71964;BME280;59834;52.124;5.422;2023-10-08T04:50:58;102403.06;;;15.15;100.00
71964;BME280;59834;52.124;5.422;2023-10-08T04:53:32;102416.59;;;15.08;100.00
71964;BME280;59834;52.124;5.422;2023-10-08T04:56:06;102445.53;;;15.10;100.00
71964;BME280;59834;52.124;5.422;2023-10-08T04:58:34;102451.66;;;15.11;100.00
71964;BME280;59834;52.124;5.422;2023-10-08T05:01:04;102463.81;;;15.13;100.00
71964;BME280;59834;52.124;5.422;2023-10-08T05:03:51;102450.72;;;15.12;100.00
71964;BME280;59834;52.124;5.422;2023-10-08T05:06:27;102463.06;;;15.11;100.00
71964;BME280;59834;52.124;5.422;2023-10-08T05:09:06;102454.41;;;15.09;100.00
71964;BME280;59834;52.124;5.422;2023-10-08T05:11:46;102461.53;;;15.07;100.00
71964;BME280;59834;52.124;5.422;2023-10-08T05:14:32;102443.13;;;15.05;100.00
71964;BME280;59834;52.124;5.422;2023-10-08T05:17:00;102445.03;;;15.03;100.00
71964;BME280;59834;52.124;5.422;2023-10-08T05:19:30;102451.16;;;15.04;100.00
71964;BME280;59834;52.124;5.422;2023-10-08T05:22:17;102462.56;;;15.04;100.00
71964;BME280;59834;52.124;5.422;2023-10-08T05:24:46;102470.72;;;15.00;100.00
71964;BME280;59834;52.124;5.422;2023-10-08T05:27:35;102476.00;;;15.00;100.00
71964;BME280;59834;52.124;5.422;2023-10-08T05:30:19;102490.19;;;14.97;100.00
71964;BME280;59834;52.124;5.422;2023-10-08T05:32:58;102490.69;;;14.88;100.00
71964;BME280;59834;52.124;5.422;2023-10-08T05:35:45;102488.09;;;14.72;100.00
71964;BME280;59834;52.124;5.422;2023-10-08T05:38:14;102477.78;;;14.68;100.00
71964;BME280;59834;52.124;5.422;2023-10-08T05:40:59;102498.44;;;14.59;100.00
71964;BME280;59834;52.124;5.422;2023-10-08T05:43:37;102508.91;;;14.44;100.00
71964;BME280;59834;52.124;5.422;2023-10-08T05:46:04;102507.00;;;14.30;100.00
71964;BME280;59834;52.124;5.422;2023-10-08T05:48:58;102510.13;;;14.21;100.00
71964;BME280;59834;52.124;5.422;2023-10-08T05:51:37;102530.75;;;14.12;100.00
71964;BME280;59834;52.124;5.422;2023-10-08T05:54:17;102555.53;;;14.08;100.00
71964;BME280;59834;52.124;5.422;2023-10-08T05:57:05;102553.13;;;14.04;100.00
71964;BME280;59834;52.124;5.422;2023-10-08T05:59:45;102521.59;;;14.02;100.00
71964;BME280;59834;52.124;5.422;2023-10-08T06:02:41;102512.16;;;13.98;100.00
71964;BME280;59834;52.124;5.422;2023-10-08T06:05:11;102501.84;;;13.94;100.00
71964;BME280;59834;52.124;5.422;2023-10-08T06:07:44;102494.97;;;13.91;100.00
71964;BME280;59834;52.124;5.422;2023-10-08T06:12:53;102523.75;;;13.94;100.00
71964;BME280;59834;52.124;5.422;2023-10-08T06:15:28;102529.28;;;13.89;100.00
71964;BME280;59834;52.124;5.422;2023-10-08T06:18:14;102548.63;;;13.88;100.00
71964;BME280;59834;52.124;5.422;2023-10-08T06:20:42;102549.63;;;13.86;100.00
71964;BME280;59834;52.124;5.422;2023-10-08T06:23:17;102559.38;;;13.84;100.00
71964;BME280;59834;52.124;5.422;2023-10-08T06:25:47;102559.47;;;13.82;100.00
71964;BME280;59834;52.124;5.422;2023-10-08T06:28:20;102563.19;;;13.78;100.00
71964;BME280;59834;52.124;5.422;2023-10-08T06:30:49;102562.16;;;13.81;100.00
71964;BME280;59834;52.124;5.422;2023-10-08T06:33:16;102574.56;;;13.79;100.00
71964;BME280;59834;52.124;5.422;2023-10-08T06:35:43;102573.88;;;13.75;100.00
71964;BME280;59834;52.124;5.422;2023-10-08T06:38:32;102564.34;;;13.73;100.00
71964;BME280;59834;52.124;5.422;2023-10-08T06:41:03;102571.44;;;13.71;100.00
71964;BME280;59834;52.124;5.422;2023-10-08T06:43:45;102574.72;;;13.76;100.00
71964;BME280;59834;52.124;5.422;2023-10-08T06:46:38;102574.56;;;13.79;100.00
71964;BME280;59834;52.124;5.422;2023-10-08T06:49:08;102586.13;;;13.75;100.00
71964;BME280;59834;52.124;5.422;2023-10-08T06:51:40;102575.00;;;13.70;100.00
71964;BME280;59834;52.124;5.422;2023-10-08T06:54:11;102575.84;;;13.70;100.00
71964;BME280;59834;52.124;5.422;2023-10-08T06:56:40;102580.97;;;13.73;100.00
71964;BME280;59834;52.124;5.422;2023-10-08T06:59:13;102587.03;;;13.75;100.00
71964;BME280;59834;52.124;5.422;2023-10-08T07:01:40;102585.25;;;13.76;100.00
71964;BME280;59834;52.124;5.422;2023-10-08T07:07:26;102595.91;;;13.73;100.00
71964;BME280;59834;52.124;5.422;2023-10-08T07:09:58;102605.59;;;13.72;100.00
71964;BME280;59834;52.124;5.422;2023-10-08T07:12:48;102605.34;;;13.77;100.00
71964;BME280;59834;52.124;5.422;2023-10-08T07:15:14;102603.56;;;13.77;100.00
71964;BME280;59834;52.124;5.422;2023-10-08T07:17:49;102591.06;;;13.82;100.00
71964;BME280;59834;52.124;5.422;2023-10-08T07:20:19;102606.56;;;13.88;100.00
71964;BME280;59834;52.124;5.422;2023-10-08T07:22:49;102602.69;;;13.96;100.00
71964;BME280;59834;52.124;5.422;2023-10-08T07:25:21;102603.53;;;13.96;100.00
71964;BME280;59834;52.124;5.422;2023-10-08T07:27:48;102608.78;;;13.96;100.00
71964;BME280;59834;52.124;5.422;2023-10-08T07:30:15;102601.50;;;14.01;100.00
71964;BME280;59834;52.124;5.422;2023-10-08T07:32:54;102611.13;;;14.02;100.00
71964;BME280;59834;52.124;5.422;2023-10-08T07:35:21;102608.88;;;14.12;100.00
71964;BME280;59834;52.124;5.422;2023-10-08T07:37:53;102606.63;;;14.22;100.00
71964;BME280;59834;52.124;5.422;2023-10-08T07:40:20;102599.25;;;14.28;100.00
71964;BME280;59834;52.124;5.422;2023-10-08T07:42:55;102608.63;;;14.34;100.00
71964;BME280;59834;52.124;5.422;2023-10-08T07:45:22;102611.91;;;14.39;100.00
71964;BME280;59834;52.124;5.422;2023-10-08T07:47:49;102613.50;;;14.42;99.98
71964;BME280;59834;52.124;5.422;2023-10-08T07:50:16;102614.19;;;14.45;99.00
71964;BME280;59834;52.124;5.422;2023-10-08T07:52:43;102614.19;;;14.45;99.74
71964;BME280;59834;52.124;5.422;2023-10-08T07:55:11;102611.56;;;14.45;99.43
71964;BME280;59834;52.124;5.422;2023-10-08T07:57:45;102624.97;;;14.41;99.00
71964;BME280;59834;52.124;5.422;2023-10-08T08:00:12;102628.94;;;14.49;98.88
71964;BME280;59834;52.124;5.422;2023-10-08T08:02:50;102632.25;;;14.70;98.28
71964;BME280;59834;52.124;5.422;2023-10-08T08:05:19;102641.22;;;14.83;98.03
71964;BME280;59834;52.124;5.422;2023-10-08T08:07:47;102636.06;;;14.98;96.17
71964;BME280;59834;52.124;5.422;2023-10-08T08:10:16;102647.78;;;14.92;96.95
71964;BME280;59834;52.124;5.422;2023-10-08T08:12:44;102648.97;;;14.87;95.79
71964;BME280;59834;52.124;5.422;2023-10-08T08:15:12;102648.44;;;14.80;95.40
71964;BME280;59834;52.124;5.422;2023-10-08T08:17:42;102652.34;;;14.73;94.82
71964;BME280;59834;52.124;5.422;2023-10-08T08:20:10;102667.63;;;14.66;94.72
71964;BME280;59834;52.124;5.422;2023-10-08T08:22:45;102671.78;;;14.70;95.03
71964;BME280;59834;52.124;5.422;2023-10-08T08:25:21;102662.72;;;14.76;94.07
71964;BME280;59834;52.124;5.422;2023-10-08T08:28:01;102664.50;;;14.75;93.41
71964;BME280;59834;52.124;5.422;2023-10-08T08:30:27;102672.66;;;14.71;94.02
71964;BME280;59834;52.124;5.422;2023-10-08T08:32:54;102674.34;;;14.72;93.31
71964;BME280;59834;52.124;5.422;2023-10-08T08:35:23;102682.19;;;14.73;93.43
71964;BME280;59834;52.124;5.422;2023-10-08T08:37:51;102683.81;;;14.76;93.15
71964;BME280;59834;52.124;5.422;2023-10-08T08:40:18;102693.41;;;14.77;93.34
71964;BME280;59834;52.124;5.422;2023-10-08T08:42:48;102695.81;;;14.81;92.52
71964;BME280;59834;52.124;5.422;2023-10-08T08:45:22;102704.41;;;14.85;92.98
71964;BME280;59834;52.124;5.422;2023-10-08T08:47:53;102704.56;;;14.82;93.29
71964;BME280;59834;52.124;5.422;2023-10-08T08:50:20;102706.28;;;14.83;92.39
71964;BME280;59834;52.124;5.422;2023-10-08T08:52:49;102692.00;;;14.87;92.17
71964;BME280;59834;52.124;5.422;2023-10-08T08:55:21;102686.09;;;14.99;91.52
71964;BME280;59834;52.124;5.422;2023-10-08T08:57:49;102690.28;;;15.03;91.11
71964;BME280;59834;52.124;5.422;2023-10-08T09:00:18;102683.25;;;15.20;90.70
71964;BME280;59834;52.124;5.422;2023-10-08T09:02:46;102670.25;;;15.32;90.53
71964;BME280;59834;52.124;5.422;2023-10-08T09:05:15;102679.00;;;15.49;89.08
71964;BME280;59834;52.124;5.422;2023-10-08T09:08:03;102674.94;;;15.43;88.42
71964;BME280;59834;52.124;5.422;2023-10-08T09:10:36;102678.06;;;15.34;88.59
71964;BME280;59834;52.124;5.422;2023-10-08T09:13:22;102674.06;;;15.27;89.00
71964;BME280;59834;52.124;5.422;2023-10-08T09:15:50;102674.75;;;15.30;88.21
71964;BME280;59834;52.124;5.422;2023-10-08T09:18:22;102664.06;;;15.49;88.14
71964;BME280;59834;52.124;5.422;2023-10-08T09:20:49;102668.22;;;15.53;87.15
71964;BME280;59834;52.124;5.422;2023-10-08T09:23:16;102663.53;;;15.59;87.44
71964;BME280;59834;52.124;5.422;2023-10-08T09:25:49;102664.56;;;15.72;86.77
71964;BME280;59834;52.124;5.422;2023-10-08T09:28:26;102662.88;;;15.71;86.42
71964;BME280;59834;52.124;5.422;2023-10-08T09:30:52;102675.75;;;15.77;86.87
71964;BME280;59834;52.124;5.422;2023-10-08T09:33:21;102668.00;;;15.74;87.37
71964;BME280;59834;52.124;5.422;2023-10-08T09:35:48;102676.66;;;15.76;86.72
71964;BME280;59834;52.124;5.422;2023-10-08T09:38:19;102686.31;;;15.77;86.36
71964;BME280;59834;52.124;5.422;2023-10-08T09:40:51;102684.69;;;15.74;86.04
71964;BME280;59834;52.124;5.422;2023-10-08T09:43:20;102694.47;;;15.72;86.62
71964;BME280;59834;52.124;5.422;2023-10-08T09:46:12;102686.81;;;15.84;86.82
71964;BME280;59834;52.124;5.422;2023-10-08T09:48:41;102682.94;;;15.89;87.02
71964;BME280;59834;52.124;5.422;2023-10-08T09:51:20;102688.72;;;15.96;86.47
71964;BME280;59834;52.124;5.422;2023-10-08T09:56:20;102680.91;;;15.94;85.98
71964;BME280;59834;52.124;5.422;2023-10-08T09:58:49;102678.28;;;15.94;86.63
71964;BME280;59834;52.124;5.422;2023-10-08T10:01:22;102683.22;;;16.00;86.67
71964;BME280;59834;52.124;5.422;2023-10-08T10:03:50;102681.91;;;16.08;86.19
71964;BME280;59834;52.124;5.422;2023-10-08T10:06:19;102676.47;;;16.11;86.43
71964;BME280;59834;52.124;5.422;2023-10-08T10:08:48;102663.81;;;16.16;85.61
71964;BME280;59834;52.124;5.422;2023-10-08T10:11:15;102677.63;;;16.21;85.81
71964;BME280;59834;52.124;5.422;2023-10-08T10:13:51;102663.47;;;16.22;84.50
71964;BME280;59834;52.124;5.422;2023-10-08T10:16:26;102671.81;;;16.30;85.20
71964;BME280;59834;52.124;5.422;2023-10-08T10:18:57;102684.47;;;16.39;85.18
71964;BME280;59834;52.124;5.422;2023-10-08T10:21:25;102680.72;;;16.43;85.04
71964;BME280;59834;52.124;5.422;2023-10-08T10:23:53;102676.03;;;16.33;84.81
71964;BME280;59834;52.124;5.422;2023-10-08T10:31:50;102677.78;;;16.34;86.42
71964;BME280;59834;52.124;5.422;2023-10-08T10:34:23;102674.84;;;16.38;86.08
71964;BME280;59834;52.124;5.422;2023-10-08T10:36:55;102672.38;;;16.35;86.25
71964;BME280;59834;52.124;5.422;2023-10-08T10:39:24;102677.63;;;16.51;85.67
71964;BME280;59834;52.124;5.422;2023-10-08T10:42:00;102681.78;;;16.55;84.69
71964;BME280;59834;52.124;5.422;2023-10-08T10:44:29;102692.28;;;16.57;84.87
71964;BME280;59834;52.124;5.422;2023-10-08T10:46:58;102686.41;;;16.52;84.92
71964;BME280;59834;52.124;5.422;2023-10-08T10:49:50;102684.78;;;16.49;85.34
71964;BME280;59834;52.124;5.422;2023-10-08T10:52:27;102683.09;;;16.62;85.15
71964;BME280;59834;52.124;5.422;2023-10-08T10:55:19;102680.88;;;16.70;84.71
71964;BME280;59834;52.124;5.422;2023-10-08T10:57:55;102670.97;;;16.74;85.19
71964;BME280;59834;52.124;5.422;2023-10-08T11:00:24;102674.53;;;16.73;84.12
71964;BME280;59834;52.124;5.422;2023-10-08T11:03:01;102677.03;;;16.76;84.72
71964;BME280;59834;52.124;5.422;2023-10-08T11:05:58;102663.63;;;16.79;84.60
71964;BME280;59834;52.124;5.422;2023-10-08T11:08:32;102663.78;;;16.76;84.07
71964;BME280;59834;52.124;5.422;2023-10-08T11:11:02;102668.28;;;16.60;84.41
71964;BME280;59834;52.124;5.422;2023-10-08T11:13:35;102672.47;;;16.64;85.14
71964;BME280;59834;52.124;5.422;2023-10-08T11:16:07;102673.47;;;16.61;85.06
71964;BME280;59834;52.124;5.422;2023-10-08T11:18:42;102679.41;;;16.50;85.19
71964;BME280;59834;52.124;5.422;2023-10-08T11:21:10;102674.31;;;16.47;84.57
71964;BME280;59834;52.124;5.422;2023-10-08T11:23:46;102667.03;;;16.51;84.71
71964;BME280;59834;52.124;5.422;2023-10-08T11:26:20;102671.69;;;16.62;84.30
71964;BME280;59834;52.124;5.422;2023-10-08T11:28:59;102669.22;;;16.59;84.68
71964;BME280;59834;52.124;5.422;2023-10-08T11:31:32;102663.09;;;16.58;85.28
71964;BME280;59834;52.124;5.422;2023-10-08T11:34:03;102660.56;;;16.57;84.66
71964;BME280;59834;52.124;5.422;2023-10-08T11:36:39;102660.81;;;16.52;85.62
71964;BME280;59834;52.124;5.422;2023-10-08T11:39:16;102660.69;;;16.39;85.21
71964;BME280;59834;52.124;5.422;2023-10-08T11:42:02;102657.47;;;16.34;85.18
71964;BME280;59834;52.124;5.422;2023-10-08T11:44:31;102661.44;;;16.27;86.24
71964;BME280;59834;52.124;5.422;2023-10-08T11:47:03;102656.88;;;16.29;86.23
71964;BME280;59834;52.124;5.422;2023-10-08T11:49:48;102657.66;;;16.31;86.42
71964;BME280;59834;52.124;5.422;2023-10-08T11:52:20;102651.34;;;16.34;86.17
71964;BME280;59834;52.124;5.422;2023-10-08T11:54:49;102645.78;;;16.53;85.16
71964;BME280;59834;52.124;5.422;2023-10-08T11:57:18;102646.75;;;16.66;83.96
71964;BME280;59834;52.124;5.422;2023-10-08T11:59:49;102646.75;;;16.66;84.69
71964;BME280;59834;52.124;5.422;2023-10-08T12:02:19;102646.56;;;16.69;84.39
71964;BME280;59834;52.124;5.422;2023-10-08T12:04:47;102643.19;;;16.67;84.45
71964;BME280;59834;52.124;5.422;2023-10-08T12:07:15;102626.44;;;16.66;84.53
71964;BME280;59834;52.124;5.422;2023-10-08T12:09:44;102620.66;;;16.76;84.83
71964;BME280;59834;52.124;5.422;2023-10-08T12:12:15;102619.06;;;16.87;83.87
71964;BME280;59834;52.124;5.422;2023-10-08T12:14:42;102608.66;;;16.99;83.31
71964;BME280;59834;52.124;5.422;2023-10-08T12:17:13;102601.19;;;17.05;83.50
71964;BME280;59834;52.124;5.422;2023-10-08T12:19:43;102600.13;;;17.08;82.56
71964;BME280;59834;52.124;5.422;2023-10-08T12:22:11;102597.28;;;16.96;83.16
71964;BME280;59834;52.124;5.422;2023-10-08T12:24:44;102589.84;;;16.89;83.86
71964;BME280;59834;52.124;5.422;2023-10-08T12:27:11;102596.00;;;16.89;84.30
71964;BME280;59834;52.124;5.422;2023-10-08T12:29:39;102588.25;;;16.86;84.67
71964;BME280;59834;52.124;5.422;2023-10-08T12:32:06;102582.94;;;16.86;83.71
71964;BME280;59834;52.124;5.422;2023-10-08T12:34:44;102585.41;;;16.89;83.15
71964;BME280;59834;52.124;5.422;2023-10-08T12:37:10;102573.72;;;16.93;83.47
71964;BME280;59834;52.124;5.422;2023-10-08T12:39:41;102584.53;;;17.03;83.49
71964;BME280;59834;52.124;5.422;2023-10-08T12:42:19;102577.47;;;17.04;83.04
71964;BME280;59834;52.124;5.422;2023-10-08T12:44:47;102572.38;;;17.01;83.19
71964;BME280;59834;52.124;5.422;2023-10-08T12:47:14;102566.13;;;17.02;82.77
71964;BME280;59834;52.124;5.422;2023-10-08T12:49:42;102577.84;;;16.98;82.40
71964;BME280;59834;52.124;5.422;2023-10-08T12:52:11;102565.38;;;17.00;82.56
71964;BME280;59834;52.124;5.422;2023-10-08T12:54:39;102560.06;;;17.00;82.72
71964;BME280;59834;52.124;5.422;2023-10-08T12:57:12;102547.63;;;17.02;83.99
71964;BME280;59834;52.124;5.422;2023-10-08T12:59:42;102559.00;;;17.16;82.68
71964;BME280;59834;52.124;5.422;2023-10-08T13:02:15;102554.97;;;17.11;82.91
71964;BME280;59834;52.124;5.422;2023-10-08T13:04:44;102551.03;;;17.04;82.67
71964;BME280;59834;52.124;5.422;2023-10-08T13:07:12;102557.25;;;17.03;82.67
71964;BME280;59834;52.124;5.422;2023-10-08T13:09:40;102551.56;;;17.09;81.69
71964;BME280;59834;52.124;5.422;2023-10-08T13:12:09;102550.72;;;17.08;81.27
71964;BME280;59834;52.124;5.422;2023-10-08T13:14:37;102541.94;;;17.08;81.66
71964;BME280;59834;52.124;5.422;2023-10-08T13:17:05;102555.44;;;17.03;81.35
71964;BME280;59834;52.124;5.422;2023-10-08T13:19:37;102555.56;;;17.02;81.82
71964;BME280;59834;52.124;5.422;2023-10-08T13:22:03;102545.31;;;17.10;82.44
71964;BME280;59834;52.124;5.422;2023-10-08T13:24:33;102554.00;;;17.12;81.97
71964;BME280;59834;52.124;5.422;2023-10-08T13:27:02;102561.94;;;17.12;81.27